Time;durP1;ratioP1;P1;durP2;ratioP2;P2;SDS_P1;SDS_P2;PMS_P1;PMS_P2;Temp;Humidity;BMP_temperature;BMP_pressure;BME280_temperature;BME280_humidity;BME280_pressure;Samples;Min_cycle;Max_cycle;Signal;HPM_P1;HPM_P2
2022/06/19 00:02:07;;;;;;;26.17;5.47;;;24.40;73.40;;;;;;5001051;28;20038;-59
2022/06/19 00:04:33;;;;;;;17.00;3.60;;;24.50;72.90;;;;;;5005150;28;20081;-59
2022/06/19 00:06:59;;;;;;;17.85;4.00;;;24.50;73.70;;;;;;5007501;28;20045;-58
2022/06/19 00:09:26;;;;;;;14.80;5.50;;;24.50;73.10;;;;;;5006826;28;20689;-58
2022/06/19 00:11:52;;;;;;;17.02;4.30;;;24.40;73.10;;;;;;5008959;28;20101;-59
2022/06/19 00:14:18;;;;;;;18.38;4.93;;;24.40;73.30;;;;;;5005802;28;20492;-59
2022/06/19 00:16:44;;;;;;;18.17;4.88;;;24.40;73.30;;;;;;4989035;28;20053;-58
2022/06/19 00:19:09;;;;;;;19.25;3.45;;;24.30;73.40;;;;;;4999013;28;20033;-59
2022/06/19 00:21:35;;;;;;;16.92;4.05;;;24.30;73.10;;;;;;4993707;28;20022;-58
2022/06/19 00:24:01;;;;;;;20.17;3.53;;;24.30;72.80;;;;;;4994486;28;20088;-59
2022/06/19 00:26:26;;;;;;;17.45;4.22;;;24.40;72.90;;;;;;4974113;28;20087;-59
2022/06/19 00:28:52;;;;;;;21.55;4.22;;;24.30;73.20;;;;;;4992815;28;20092;-59
2022/06/19 00:31:18;;;;;;;18.92;3.28;;;24.30;72.70;;;;;;4997072;28;20072;-59
2022/06/19 00:33:44;;;;;;;19.35;3.70;;;24.30;72.70;;;;;;4995642;28;20104;-59
2022/06/19 00:36:09;;;;;;;15.43;4.43;;;24.30;72.90;;;;;;4994500;28;20495;-59
2022/06/19 00:38:35;;;;;;;21.17;4.28;;;24.30;73.00;;;;;;5002835;28;20810;-59
2022/06/19 00:41:02;;;;;;;26.27;4.50;;;24.10;73.10;;;;;;4996646;28;20308;-58
2022/06/19 00:43:28;;;;;;;17.88;5.18;;;24.10;74.20;;;;;;4995918;28;20510;-59
2022/06/19 00:46:02;;;;;;;16.45;4.60;;;24.00;73.60;;;;;;4999718;28;20026;-59
2022/06/19 00:48:31;;;;;;;15.52;3.33;;;23.90;73.80;;;;;;5006159;28;20030;-59
2022/06/19 00:51:02;;;;;;;27.05;4.47;;;23.80;74.90;;;;;;5006854;28;20033;-60
2022/06/19 00:53:32;;;;;;;19.88;4.60;;;23.70;74.60;;;;;;5009064;28;20426;-59
2022/06/19 00:55:59;;;;;;;22.88;4.25;;;23.60;75.30;;;;;;5012722;28;20030;-59
2022/06/19 00:58:33;;;;;;;13.13;4.43;;;23.60;75.40;;;;;;5011708;28;20037;-59
2022/06/19 01:01:03;;;;;;;20.02;4.15;;;23.50;75.60;;;;;;5009186;28;20030;-59
2022/06/19 01:03:35;;;;;;;24.40;4.97;;;23.50;76.00;;;;;;5005322;28;20026;-60
2022/06/19 01:06:01;;;;;;;16.80;4.28;;;23.40;76.50;;;;;;5011015;28;20037;-59
2022/06/19 01:08:27;;;;;;;16.92;3.90;;;23.40;76.10;;;;;;5011614;28;20498;-57
2022/06/19 01:10:53;;;;;;;19.13;4.53;;;23.40;76.00;;;;;;5000135;28;20054;-59
2022/06/19 01:13:22;;;;;;;12.27;3.20;;;23.40;76.30;;;;;;5000356;28;20495;-59
2022/06/19 01:15:49;;;;;;;13.75;3.20;;;23.30;77.00;;;;;;4982784;28;20101;-58
2022/06/19 01:18:14;;;;;;;20.83;5.45;;;23.30;76.10;;;;;;4997947;28;20026;-59
2022/06/19 01:20:41;;;;;;;22.48;5.60;;;23.30;76.00;;;;;;5002685;28;20117;-58
2022/06/19 01:23:28;;;;;;;27.02;5.18;;;23.30;75.70;;;;;;5002595;28;20037;-59
2022/06/19 01:25:54;;;;;;;22.52;4.65;;;23.30;75.30;;;;;;5005257;28;20092;-59
2022/06/19 01:31:10;;;;;;;17.60;3.88;;;23.30;77.10;;;;;;5000825;28;20060;-59
2022/06/19 01:33:43;;;;;;;14.38;4.07;;;23.20;76.80;;;;;;5005051;28;20040;-58
2022/06/19 01:36:12;;;;;;;23.27;4.27;;;23.20;76.90;;;;;;5011048;28;20028;-58
2022/06/19 01:38:39;;;;;;;30.65;5.15;;;23.30;76.20;;;;;;5008821;28;20367;-57
2022/06/19 01:41:11;;;;;;;15.30;4.82;;;23.30;76.60;;;;;;5013129;28;20040;-60
2022/06/19 01:43:37;;;;;;;20.95;4.30;;;23.30;76.10;;;;;;5010122;28;20231;-59
2022/06/19 01:46:05;;;;;;;19.67;4.90;;;23.30;75.80;;;;;;5008413;28;20034;-58
2022/06/19 01:48:32;;;;;;;27.38;4.13;;;23.30;75.90;;;;;;5010987;28;20150;-59
2022/06/19 01:51:01;;;;;;;28.15;5.38;;;23.30;75.50;;;;;;5012566;28;20385;-59
2022/06/19 01:53:33;;;;;;;17.38;4.30;;;23.40;75.70;;;;;;5010819;28;20479;-59
2022/06/19 01:55:59;;;;;;;20.03;4.87;;;23.40;75.60;;;;;;5011467;28;20104;-59
2022/06/19 01:58:28;;;;;;;18.98;4.30;;;23.30;75.30;;;;;;5009103;28;20033;-60
2022/06/19 02:00:55;;;;;;;14.20;3.70;;;23.30;75.50;;;;;;5011464;28;20034;-59
2022/06/19 02:03:27;;;;;;;18.17;3.83;;;23.30;75.80;;;;;;5008687;28;20060;-59
2022/06/19 02:05:53;;;;;;;15.05;3.65;;;23.30;75.60;;;;;;5000960;28;20053;-59
2022/06/19 02:08:19;;;;;;;17.75;4.72;;;23.30;75.40;;;;;;5010133;28;20052;-59
2022/06/19 02:10:45;;;;;;;14.65;3.97;;;23.30;75.30;;;;;;5010288;28;20479;-57
2022/06/19 02:13:14;;;;;;;27.17;5.70;;;23.30;75.70;;;;;;5012559;28;20025;-56
2022/06/19 02:15:42;;;;;;;17.88;4.68;;;23.30;75.30;;;;;;4988729;28;20076;-56
2022/06/19 02:18:11;;;;;;;25.23;5.35;;;23.30;75.90;;;;;;5010220;28;20030;-58
2022/06/19 02:20:37;;;;;;;18.90;3.83;;;23.30;76.30;;;;;;5010359;28;20478;-58
2022/06/19 02:23:05;;;;;;;14.13;4.07;;;23.30;76.00;;;;;;5008420;28;20026;-56
2022/06/19 02:25:33;;;;;;;21.23;4.10;;;23.30;75.50;;;;;;5006340;28;20088;-58
2022/06/19 02:28:01;;;;;;;14.15;3.72;;;23.20;75.10;;;;;;5012210;28;20026;-59
2022/06/19 02:30:27;;;;;;;25.17;4.88;;;23.20;75.30;;;;;;5002744;28;20148;-59
2022/06/19 02:32:54;;;;;;;18.77;4.68;;;23.20;75.30;;;;;;5006865;28;20471;-58
2022/06/19 02:35:22;;;;;;;21.02;4.38;;;23.20;75.60;;;;;;4997865;28;20049;-57
2022/06/19 02:37:51;;;;;;;18.63;3.90;;;23.20;75.30;;;;;;5011476;28;20497;-59
2022/06/19 02:40:16;;;;;;;13.88;5.00;;;23.20;75.80;;;;;;5018516;28;20025;-59
2022/06/19 02:42:44;;;;;;;20.25;4.03;;;23.10;75.30;;;;;;5011789;28;20017;-59
2022/06/19 02:45:22;;;;;;;24.38;5.07;;;23.10;75.40;;;;;;5002642;28;20048;-59
2022/06/19 02:47:49;;;;;;;20.00;5.65;;;23.10;75.20;;;;;;5005238;28;20029;-59
2022/06/19 02:50:19;;;;;;;22.73;4.55;;;23.10;75.30;;;;;;5005490;28;20092;-59
2022/06/19 02:52:45;;;;;;;21.55;4.78;;;23.10;75.70;;;;;;5011649;28;20026;-59
2022/06/19 02:55:11;;;;;;;23.77;5.35;;;23.00;76.20;;;;;;5008765;28;20056;-59
2022/06/19 02:57:38;;;;;;;18.42;4.72;;;22.90;76.10;;;;;;5010639;28;20049;-58
2022/06/19 03:00:06;;;;;;;24.92;4.55;;;22.90;76.40;;;;;;5010427;28;20038;-60
2022/06/19 03:02:32;;;;;;;25.40;3.85;;;22.80;76.40;;;;;;5011076;28;20030;-57
2022/06/19 03:05:03;;;;;;;26.33;4.30;;;22.80;76.60;;;;;;5006191;28;20403;-59
2022/06/19 03:07:30;;;;;;;16.13;4.05;;;22.80;76.40;;;;;;5003118;28;20048;-60
2022/06/19 03:09:56;;;;;;;20.50;3.55;;;22.80;75.80;;;;;;5008239;28;20018;-58
2022/06/19 03:12:22;;;;;;;32.63;5.68;;;22.70;76.70;;;;;;5010735;28;20108;-59
2022/06/19 03:14:48;;;;;;;15.68;4.03;;;22.70;77.10;;;;;;5009716;28;20554;-59
2022/06/19 03:17:16;;;;;;;23.65;5.40;;;22.70;77.40;;;;;;4992717;28;20034;-57
2022/06/19 03:19:42;;;;;;;21.10;4.50;;;22.70;77.30;;;;;;5005341;28;20038;-58
2022/06/19 03:22:09;;;;;;;19.95;4.32;;;22.60;77.20;;;;;;5011152;28;20030;-62
2022/06/19 03:24:35;;;;;;;19.90;4.38;;;22.60;79.00;;;;;;5005974;28;20159;-60
2022/06/19 03:27:00;;;;;;;26.35;5.38;;;22.60;77.90;;;;;;5010724;28;20072;-59
2022/06/19 03:29:26;;;;;;;24.65;5.03;;;22.60;77.00;;;;;;5009506;28;20132;-58
2022/06/19 03:31:51;;;;;;;25.33;5.30;;;22.60;76.80;;;;;;5011364;28;20025;-59
2022/06/19 03:34:17;;;;;;;30.45;6.18;;;22.70;76.50;;;;;;5009676;28;20033;-60
2022/06/19 03:36:43;;;;;;;20.30;4.53;;;22.70;77.10;;;;;;5010052;28;20377;-59
2022/06/19 03:39:09;;;;;;;19.25;5.55;;;22.70;77.40;;;;;;5009853;28;20419;-60
2022/06/19 03:41:35;;;;;;;22.70;5.05;;;22.70;77.20;;;;;;5009501;28;20396;-59
2022/06/19 03:44:01;;;;;;;20.80;4.22;;;22.80;77.10;;;;;;5009933;28;20030;-60
2022/06/19 03:46:26;;;;;;;19.67;4.60;;;22.80;77.50;;;;;;5007864;28;20558;-58
2022/06/19 03:48:52;;;;;;;17.75;4.20;;;22.90;77.50;;;;;;5009658;28;20026;-58
2022/06/19 03:51:23;;;;;;;38.17;5.95;;;22.90;77.40;;;;;;5010745;28;20013;-57
2022/06/19 03:53:52;;;;;;;19.80;4.18;;;22.90;77.80;;;;;;5007592;28;20084;-59
2022/06/19 03:56:28;;;;;;;20.52;4.55;;;23.00;78.00;;;;;;5008832;28;20125;-59
2022/06/19 03:58:54;;;;;;;21.63;5.72;;;23.00;78.30;;;;;;5007850;28;20104;-59
2022/06/19 04:01:26;;;;;;;24.27;5.55;;;23.10;77.20;;;;;;5009284;28;20037;-58
2022/06/19 04:03:54;;;;;;;20.98;4.53;;;23.20;77.40;;;;;;5009493;28;20117;-59
2022/06/19 04:06:22;;;;;;;14.70;3.67;;;23.20;76.70;;;;;;5005411;28;20053;-59
2022/06/19 04:08:48;;;;;;;18.52;4.82;;;23.30;77.10;;;;;;5008971;28;20029;-57
2022/06/19 04:11:15;;;;;;;27.50;4.70;;;23.30;78.10;;;;;;5009051;28;20052;-59
2022/06/19 04:13:41;;;;;;;18.67;5.63;;;23.40;78.70;;;;;;5008142;28;20045;-55
2022/06/19 04:16:10;;;;;;;29.02;5.35;;;23.40;80.00;;;;;;4992799;28;20030;-59
2022/06/19 04:18:36;;;;;;;24.13;5.88;;;23.30;81.20;;;;;;5006291;28;20379;-57
2022/06/19 04:21:03;;;;;;;22.20;5.97;;;23.30;83.20;;;;;;5007406;28;20026;-59
2022/06/19 04:23:29;;;;;;;27.98;6.85;;;23.20;86.40;;;;;;5007714;28;20087;-59
2022/06/19 04:25:55;;;;;;;17.85;5.82;;;23.20;88.80;;;;;;5008985;28;20101;-59
2022/06/19 04:28:24;;;;;;;20.35;6.32;;;23.10;90.20;;;;;;5008750;28;20026;-58
2022/06/19 04:30:51;;;;;;;16.40;6.75;;;22.90;91.30;;;;;;5006362;28;20061;-59
2022/06/19 04:33:18;;;;;;;17.63;6.70;;;22.80;92.50;;;;;;5009902;28;20114;-59
2022/06/19 04:35:44;;;;;;;13.70;6.43;;;22.90;93.40;;;;;;5006777;28;20030;-57
2022/06/19 04:38:10;;;;;;;18.52;6.63;;;23.20;94.00;;;;;;5008310;28;20091;-58
2022/06/19 04:40:37;;;;;;;11.93;5.30;;;23.50;94.20;;;;;;5008400;28;20108;-59
2022/06/19 04:43:03;;;;;;;9.02;5.13;;;24.30;93.30;;;;;;5008787;28;20327;-60
2022/06/19 04:45:30;;;;;;;9.52;4.40;;;24.80;91.80;;;;;;5008937;28;20117;-58
2022/06/19 04:47:56;;;;;;;10.07;4.18;;;25.70;90.40;;;;;;5008671;28;20022;-59
2022/06/19 04:50:21;;;;;;;7.32;3.10;;;25.20;89.90;;;;;;5007946;28;20563;-59
2022/06/19 04:52:48;;;;;;;5.47;2.70;;;25.10;88.10;;;;;;5010161;28;20033;-60
2022/06/19 04:55:16;;;;;;;11.25;3.13;;;25.10;87.70;;;;;;5006971;28;20022;-59
2022/06/19 04:57:42;;;;;;;11.93;2.80;;;24.80;86.30;;;;;;5009795;28;20053;-56
2022/06/19 05:00:13;;;;;;;5.78;2.88;;;24.30;89.00;;;;;;5007932;28;20407;-59
2022/06/19 05:02:39;;;;;;;7.93;2.33;;;23.80;90.60;;;;;;5007963;28;20026;-59
2022/06/19 05:05:06;;;;;;;11.43;2.90;;;24.10;89.10;;;;;;5008664;28;20029;-59
2022/06/19 05:07:33;;;;;;;13.98;3.33;;;24.60;87.30;;;;;;5007045;28;20028;-59
2022/06/19 05:09:58;;;;;;;6.88;2.75;;;25.20;85.20;;;;;;5009282;28;20058;-60
2022/06/19 05:12:25;;;;;;;9.20;2.38;;;25.70;82.90;;;;;;5005845;28;20498;-60
2022/06/19 05:14:50;;;;;;;6.88;2.55;;;26.10;80.40;;;;;;5008122;28;20559;-60
2022/06/19 05:17:16;;;;;;;8.43;2.67;;;26.50;78.60;;;;;;4986247;28;20104;-60
2022/06/19 05:19:42;;;;;;;10.30;3.17;;;26.40;77.50;;;;;;5009563;28;20042;-56
2022/06/19 05:22:08;;;;;;;9.70;2.60;;;26.50;77.00;;;;;;5008030;28;20034;-59
2022/06/19 05:24:34;;;;;;;7.75;2.47;;;26.70;76.20;;;;;;5005494;28;20036;-60
2022/06/19 05:27:01;;;;;;;13.38;2.58;;;27.10;74.90;;;;;;5008877;28;20018;-59
2022/06/19 05:29:27;;;;;;;8.88;2.03;;;27.00;74.50;;;;;;5000963;28;20037;-60
2022/06/19 05:31:52;;;;;;;8.82;3.05;;;27.50;74.90;;;;;;5006803;28;20037;-60
2022/06/19 05:34:18;;;;;;;10.00;2.83;;;27.00;72.80;;;;;;5008381;28;20438;-58
2022/06/19 05:36:43;;;;;;;8.52;2.38;;;26.60;74.10;;;;;;5009750;28;20121;-60
2022/06/19 05:39:09;;;;;;;14.02;3.50;;;27.50;72.60;;;;;;5011477;28;20402;-60
2022/06/19 05:41:38;;;;;;;10.43;2.47;;;27.40;71.30;;;;;;5012020;28;20030;-60
2022/06/19 05:44:04;;;;;;;14.00;3.03;;;26.80;72.10;;;;;;5012051;28;20495;-60
2022/06/19 05:46:29;;;;;;;10.57;3.10;;;26.80;72.30;;;;;;5011808;28;20064;-60
2022/06/19 05:48:55;;;;;;;10.05;2.50;;;26.70;72.10;;;;;;5010383;28;20423;-60
2022/06/19 05:51:23;;;;;;;10.20;2.63;;;26.80;72.10;;;;;;5012533;28;20026;-60
2022/06/19 05:53:52;;;;;;;5.57;2.03;;;26.30;73.10;;;;;;5010397;28;20030;-60
2022/06/19 05:56:18;;;;;;;9.48;2.88;;;26.30;73.40;;;;;;5012489;28;20100;-59
2022/06/19 05:58:44;;;;;;;10.73;2.95;;;27.40;72.40;;;;;;5009817;28;20522;-58
2022/06/19 06:01:11;;;;;;;10.68;2.90;;;27.10;71.10;;;;;;5019373;28;20048;-60
2022/06/19 06:03:37;;;;;;;7.18;3.40;;;27.50;71.00;;;;;;5008303;28;20041;-58
2022/06/19 06:06:06;;;;;;;9.95;2.88;;;27.00;70.50;;;;;;5011483;28;20080;-60
2022/06/19 06:08:35;;;;;;;14.57;3.38;;;26.70;70.70;;;;;;5013493;28;20492;-60
2022/06/19 06:11:01;;;;;;;11.43;3.40;;;26.90;70.60;;;;;;5011650;28;20188;-59
2022/06/19 06:13:29;;;;;;;9.60;2.60;;;27.10;70.60;;;;;;5008341;28;20102;-61
2022/06/19 06:15:55;;;;;;;9.00;2.50;;;28.20;69.70;;;;;;5010791;28;20034;-60
2022/06/19 06:18:21;;;;;;;9.55;2.75;;;28.40;68.10;;;;;;4996382;28;20046;-59
2022/06/19 06:20:55;;;;;;;11.35;3.40;;;28.80;67.00;;;;;;5008940;28;20371;-60
2022/06/19 06:23:20;;;;;;;12.13;3.05;;;28.50;66.20;;;;;;5011151;28;20037;-59
2022/06/19 06:25:46;;;;;;;11.95;3.72;;;27.80;67.30;;;;;;5011353;28;20030;-60
2022/06/19 06:28:12;;;;;;;8.05;2.45;;;27.50;68.00;;;;;;5011244;28;20030;-59
2022/06/19 06:30:38;;;;;;;9.18;2.70;;;28.10;67.60;;;;;;5011844;28;20034;-59
2022/06/19 06:33:05;;;;;;;9.18;3.20;;;28.40;66.40;;;;;;5013376;28;20105;-60
2022/06/19 06:35:31;;;;;;;9.15;3.25;;;27.70;66.70;;;;;;5012592;28;20053;-59
2022/06/19 06:38:00;;;;;;;14.23;3.05;;;27.10;68.20;;;;;;5010609;28;20030;-61
2022/06/19 06:40:27;;;;;;;10.85;3.05;;;27.30;67.60;;;;;;5007363;28;20025;-60
2022/06/19 06:42:53;;;;;;;13.00;3.15;;;26.50;69.00;;;;;;5010736;28;20045;-60
2022/06/19 06:45:19;;;;;;;13.73;4.10;;;26.20;71.50;;;;;;5009997;28;20089;-60
2022/06/19 06:47:44;;;;;;;14.38;3.00;;;26.50;70.00;;;;;;5010974;28;20040;-60
2022/06/19 06:50:10;;;;;;;7.78;2.70;;;26.30;69.90;;;;;;5009999;28;20049;-60
2022/06/19 06:52:36;;;;;;;8.45;2.72;;;26.80;70.90;;;;;;5013331;28;20403;-59
2022/06/19 06:55:02;;;;;;;13.15;3.03;;;27.40;68.30;;;;;;5010556;28;20127;-59
2022/06/19 06:57:27;;;;;;;11.50;2.75;;;26.60;69.30;;;;;;5010858;28;20387;-60
2022/06/19 06:59:53;;;;;;;10.20;2.70;;;26.70;69.10;;;;;;5011071;28;20049;-60
2022/06/19 07:02:18;;;;;;;10.32;2.92;;;27.20;69.80;;;;;;5013405;28;20184;-60
2022/06/19 07:04:44;;;;;;;11.07;3.60;;;28.00;67.20;;;;;;5009592;28;20017;-60
2022/06/19 07:07:10;;;;;;;9.10;2.60;;;28.50;66.50;;;;;;5009368;28;20029;-60
2022/06/19 07:09:35;;;;;;;11.82;3.33;;;29.60;64.60;;;;;;5012807;28;20045;-58
2022/06/19 07:12:02;;;;;;;10.60;2.72;;;29.20;63.60;;;;;;5004788;28;20032;-60
2022/06/19 07:14:28;;;;;;;11.63;3.13;;;29.10;65.10;;;;;;5010883;28;20033;-60
2022/06/19 07:16:53;;;;;;;8.75;2.97;;;29.40;63.50;;;;;;4993301;28;20022;-60
2022/06/19 07:19:19;;;;;;;7.53;2.78;;;28.40;65.00;;;;;;5007374;28;20030;-60
2022/06/19 07:21:44;;;;;;;11.48;3.08;;;27.10;67.70;;;;;;5008251;28;20030;-58
2022/06/19 07:24:10;;;;;;;13.52;2.92;;;26.70;69.00;;;;;;5007198;28;20044;-59
2022/06/19 07:26:36;;;;;;;11.52;2.92;;;26.10;70.10;;;;;;5008108;28;20029;-59
2022/06/19 07:29:02;;;;;;;11.82;3.35;;;26.00;70.50;;;;;;5009322;28;20479;-59
2022/06/19 07:31:28;;;;;;;11.10;2.75;;;26.50;70.60;;;;;;5007672;28;20507;-60
2022/06/19 07:33:54;;;;;;;16.48;3.08;;;26.80;70.90;;;;;;5011066;28;20026;-59
2022/06/19 07:36:22;;;;;;;12.90;2.75;;;27.10;68.30;;;;;;5010396;28;20466;-59
2022/06/19 07:38:48;;;;;;;8.80;2.72;;;27.60;67.80;;;;;;5003732;28;20501;-60
2022/06/19 07:41:14;;;;;;;16.27;3.13;;;27.80;66.80;;;;;;5008338;28;20037;-58
2022/06/19 07:43:40;;;;;;;15.95;3.40;;;28.50;66.10;;;;;;5006328;28;20035;-59
2022/06/19 07:46:06;;;;;;;13.55;3.22;;;28.20;65.50;;;;;;5025354;28;20053;-60
2022/06/19 07:51:17;;;;;;;12.80;3.80;;;27.70;65.50;;;;;;5010385;28;20033;-60
2022/06/19 07:53:42;;;;;;;12.52;3.55;;;27.70;66.20;;;;;;5006388;28;20034;-57
2022/06/19 07:56:08;;;;;;;10.27;3.70;;;27.70;67.00;;;;;;5010284;28;20497;-59
2022/06/19 07:58:35;;;;;;;13.32;2.95;;;27.40;66.10;;;;;;5008680;28;20114;-59
2022/06/19 08:01:01;;;;;;;17.08;4.50;;;26.80;67.80;;;;;;5009977;28;20034;-58
2022/06/19 08:03:26;;;;;;;15.80;2.70;;;26.50;68.60;;;;;;5006795;28;20036;-59
2022/06/19 08:05:52;;;;;;;14.75;3.45;;;26.50;69.30;;;;;;5003059;28;20018;-58
2022/06/19 08:08:20;;;;;;;12.38;3.08;;;27.00;67.20;;;;;;5012021;28;20053;-59
2022/06/19 08:10:50;;;;;;;12.07;3.20;;;27.70;65.90;;;;;;5008659;28;20030;-59
2022/06/19 08:13:20;;;;;;;16.08;3.47;;;28.50;65.50;;;;;;5008776;28;20037;-59
2022/06/19 08:15:51;;;;;;;10.77;3.55;;;28.70;64.70;;;;;;5007343;28;20096;-59
2022/06/19 08:18:16;;;;;;;9.82;3.22;;;29.40;62.30;;;;;;4997850;28;20092;-59
2022/06/19 08:20:42;;;;;;;12.40;3.92;;;28.20;64.20;;;;;;5004979;28;20033;-59
2022/06/19 08:23:08;;;;;;;9.18;2.85;;;28.10;65.20;;;;;;5009061;28;20048;-59
2022/06/19 08:25:34;;;;;;;10.60;3.42;;;28.40;64.90;;;;;;5009056;28;20484;-58
2022/06/19 08:28:00;;;;;;;15.52;3.63;;;28.30;64.70;;;;;;5010265;28;20014;-58
2022/06/19 08:30:45;;;;;;;13.20;3.58;;;28.30;65.10;;;;;;5008883;28;20522;-58
2022/06/19 08:33:11;;;;;;;8.57;2.50;;;28.80;64.50;;;;;;5006204;28;20029;-59
2022/06/19 08:35:51;;;;;;;9.85;2.92;;;29.20;64.90;;;;;;5009653;28;20229;-59
2022/06/19 08:38:23;;;;;;;14.00;3.55;;;29.40;64.00;;;;;;4999023;28;20022;-59
2022/06/19 08:41:07;;;;;;;13.37;3.70;;;29.70;63.00;;;;;;5009467;28;20030;-58
2022/06/19 08:43:38;;;;;;;10.65;3.53;;;29.20;63.60;;;;;;5007610;28;20431;-60
2022/06/19 08:46:33;;;;;;;16.55;4.13;;;29.60;62.10;;;;;;5007900;28;20099;-60
2022/06/19 08:49:36;;;;;;;12.57;3.15;;;29.90;63.00;;;;;;4956334;28;20039;-59
2022/06/19 08:52:04;;;;;;;13.35;3.55;;;30.00;61.30;;;;;;5009883;28;20046;-59
2022/06/19 08:55:08;;;;;;;13.68;3.65;;;30.10;61.20;;;;;;5011006;28;20045;-59
2022/06/19 08:57:39;;;;;;;13.85;5.13;;;29.80;61.90;;;;;;5006762;28;20091;-60
2022/06/19 09:00:08;;;;;;;16.90;3.80;;;29.80;61.00;;;;;;5009256;28;20029;-60
2022/06/19 09:03:09;;;;;;;14.68;4.22;;;29.90;62.40;;;;;;5008410;28;20396;-59
2022/06/19 09:05:47;;;;;;;11.90;4.25;;;30.60;60.10;;;;;;5007882;28;20026;-60
2022/06/19 09:08:49;;;;;;;10.98;3.80;;;30.60;59.00;;;;;;5016684;28;20029;-60
2022/06/19 09:11:33;;;;;;;16.60;4.68;;;29.50;61.00;;;;;;5008609;28;20101;-60
2022/06/19 09:14:34;;;;;;;13.50;4.78;;;28.50;62.30;;;;;;5014498;28;20037;-60
2022/06/19 09:17:31;;;;;;;16.05;3.75;;;28.80;61.80;;;;;;4953401;28;20101;-60
2022/06/19 09:20:09;;;;;;;13.35;4.57;;;29.40;61.20;;;;;;5003140;28;20408;-60
2022/06/19 09:23:04;;;;;;;12.70;4.25;;;29.40;60.80;;;;;;5011770;28;20026;-60
2022/06/19 09:26:01;;;;;;;14.45;4.78;;;29.10;61.50;;;;;;5011551;28;20046;-59
2022/06/19 09:28:52;;;;;;;13.02;4.75;;;29.50;61.20;;;;;;5010884;28;20017;-59
2022/06/19 09:31:34;;;;;;;16.48;5.22;;;29.70;59.60;;;;;;5012754;28;20018;-60
2022/06/19 09:34:29;;;;;;;14.48;5.07;;;29.80;59.30;;;;;;5008515;28;20448;-60
2022/06/19 09:37:01;;;;;;;25.67;4.47;;;30.10;61.20;;;;;;5010230;28;20034;-59
2022/06/19 09:39:46;;;;;;;14.13;5.03;;;30.30;61.20;;;;;;5010714;28;20029;-59
2022/06/19 09:42:18;;;;;;;17.30;4.18;;;30.40;59.30;;;;;;5010336;28;20037;-59
2022/06/19 09:44:49;;;;;;;17.02;4.47;;;30.40;58.70;;;;;;5009881;28;20045;-57
2022/06/19 09:47:41;;;;;;;17.52;4.75;;;30.10;59.70;;;;;;5007957;28;20022;-59
2022/06/19 09:50:14;;;;;;;16.20;4.78;;;29.60;61.00;;;;;;5007767;28;20037;-58
2022/06/19 09:52:50;;;;;;;10.52;4.00;;;29.30;59.70;;;;;;5011044;28;20053;-59
2022/06/19 09:55:27;;;;;;;13.00;4.00;;;29.80;60.90;;;;;;5004956;28;20080;-60
2022/06/19 09:58:21;;;;;;;14.90;3.88;;;29.80;59.40;;;;;;5010492;28;20658;-59
2022/06/19 10:00:50;;;;;;;18.45;5.03;;;29.40;60.10;;;;;;5007104;28;20042;-59
2022/06/19 10:03:46;;;;;;;14.30;4.53;;;28.60;61.20;;;;;;5009163;28;20627;-59
2022/06/19 10:06:18;;;;;;;13.68;4.97;;;28.80;62.40;;;;;;5008953;28;20056;-59
2022/06/19 10:08:46;;;;;;;13.75;4.78;;;28.40;61.10;;;;;;5010748;28;20110;-58
2022/06/19 10:11:43;;;;;;;17.45;4.68;;;28.70;61.20;;;;;;5002554;28;20559;-59
2022/06/19 10:14:21;;;;;;;12.55;3.78;;;28.90;61.50;;;;;;5004066;28;20045;-58
2022/06/19 10:16:58;;;;;;;15.30;4.63;;;28.80;61.50;;;;;;4999124;28;20026;-58
2022/06/19 10:19:31;;;;;;;13.52;4.60;;;28.30;61.60;;;;;;5007286;28;20057;-60
2022/06/19 10:22:15;;;;;;;17.77;5.85;;;28.60;62.70;;;;;;5008968;28;20034;-58
2022/06/19 10:25:18;;;;;;;19.13;4.88;;;28.60;62.20;;;;;;5006051;28;20026;-58
2022/06/19 10:28:08;;;;;;;12.70;4.35;;;28.10;62.70;;;;;;5010665;28;20026;-54
2022/06/19 10:31:01;;;;;;;17.55;5.20;;;27.40;63.60;;;;;;5006018;28;20036;-58
2022/06/19 10:33:27;;;;;;;;;;;27.40;64.80;;;;;;5007007;28;20177;-58
2022/06/19 10:36:05;;;;;;;17.45;6.15;;;28.10;64.80;;;;;;5008549;28;19992;-59
2022/06/19 10:38:39;;;;;;;19.27;5.07;;;27.70;64.10;;;;;;5008381;28;20093;-59
2022/06/19 10:42:00;;;;;;;14.32;5.70;;;27.40;65.60;;;;;;5006082;28;20026;-58
2022/06/19 10:44:26;;;;;;;17.08;4.63;;;26.70;66.50;;;;;;5008006;28;20045;-59
2022/06/19 10:47:29;;;;;;;12.57;4.72;;;26.30;68.20;;;;;;5007546;28;20018;-59
2022/06/19 10:50:02;;;;;;;11.68;4.47;;;25.80;70.80;;;;;;4971070;28;20038;-57
2022/06/19 10:52:35;;;;;;;18.58;6.32;;;25.80;70.60;;;;;;5003935;28;20427;-58
2022/06/19 10:55:06;;;;;;;16.55;5.30;;;25.30;71.40;;;;;;5006769;28;20491;-58
2022/06/19 10:58:13;;;;;;;19.55;6.00;;;25.10;72.10;;;;;;5009292;28;20108;-59
2022/06/19 11:00:39;;;;;;;14.52;5.00;;;25.20;72.90;;;;;;5010047;28;20543;-59
2022/06/19 11:06:31;;;;;;;18.05;4.82;;;26.10;71.80;;;;;;5006585;28;20567;-59
2022/06/19 11:09:01;;;;;;;18.30;6.20;;;27.10;71.00;;;;;;5006339;28;20495;-58
2022/06/19 11:11:29;;;;;;;16.60;5.10;;;27.40;70.80;;;;;;5010513;28;20025;-55
2022/06/19 11:14:03;;;;;;;10.80;4.55;;;27.20;71.00;;;;;;5009135;28;20040;-60
2022/06/19 11:16:32;;;;;;;14.43;5.43;;;27.80;71.10;;;;;;5004277;28;20113;-59
2022/06/19 11:18:58;;;;;;;13.02;4.85;;;27.30;69.90;;;;;;4986607;28;20038;-59
2022/06/19 11:21:31;;;;;;;12.48;5.13;;;27.60;70.60;;;;;;5007998;28;20507;-59
2022/06/19 11:24:01;;;;;;;22.77;5.32;;;27.80;69.20;;;;;;5009092;28;20456;-59
2022/06/19 11:26:39;;;;;;;29.60;7.20;;;27.90;68.30;;;;;;5008994;28;20073;-59
2022/06/19 11:29:13;;;;;;;25.52;6.50;;;27.10;68.20;;;;;;5005216;28;20091;-59
2022/06/19 11:31:59;;;;;;;17.90;5.55;;;27.00;70.90;;;;;;5004544;28;20110;-58
2022/06/19 11:34:43;;;;;;;16.10;5.20;;;27.00;72.10;;;;;;5001621;28;20411;-59
2022/06/19 11:37:29;;;;;;;16.90;6.50;;;27.00;71.50;;;;;;5011484;28;20025;-60
2022/06/19 11:39:57;;;;;;;16.02;4.78;;;27.20;71.30;;;;;;5003496;28;20025;-60
2022/06/19 11:42:29;;;;;;;20.77;6.82;;;27.50;69.60;;;;;;5010494;28;20029;-59
2022/06/19 11:44:59;;;;;;;21.23;5.07;;;27.80;68.90;;;;;;5007530;28;20468;-60
2022/06/19 11:47:38;;;;;;;14.65;5.00;;;27.60;66.80;;;;;;5011246;28;20036;-58
2022/06/19 11:50:14;;;;;;;15.20;4.75;;;27.30;69.40;;;;;;5006931;28;20026;-59
2022/06/19 11:52:53;;;;;;;17.65;4.93;;;27.50;68.70;;;;;;5003764;28;20046;-59
2022/06/19 11:55:36;;;;;;;22.63;5.43;;;27.60;68.20;;;;;;5005180;28;20097;-57
2022/06/19 11:58:30;;;;;;;16.70;5.18;;;27.60;68.60;;;;;;5010069;28;20026;-59
2022/06/19 12:01:02;;;;;;;16.52;5.07;;;27.60;67.10;;;;;;5011161;28;20030;-60
2022/06/19 12:03:49;;;;;;;13.02;4.80;;;27.60;68.60;;;;;;5006313;28;20025;-59
2022/06/19 12:06:17;;;;;;;16.98;4.55;;;27.60;69.90;;;;;;5001392;28;20033;-57
2022/06/19 12:09:01;;;;;;;20.02;5.80;;;27.30;69.00;;;;;;4998481;28;20038;-57
2022/06/19 12:11:45;;;;;;;12.02;4.25;;;27.40;69.80;;;;;;5001944;28;20022;-59
2022/06/19 12:14:12;;;;;;;17.08;4.45;;;27.50;69.70;;;;;;5006647;28;20488;-59
2022/06/19 12:16:38;;;;;;;15.77;4.60;;;27.50;68.90;;;;;;5005914;28;20396;-59
2022/06/19 12:19:24;;;;;;;18.25;5.50;;;27.10;67.50;;;;;;4987689;28;20038;-59
2022/06/19 12:21:59;;;;;;;23.80;5.28;;;27.40;68.80;;;;;;5007232;28;20399;-58
2022/06/19 12:24:50;;;;;;;19.75;5.13;;;27.30;69.70;;;;;;5008034;28;20118;-58
2022/06/19 12:27:18;;;;;;;14.98;4.97;;;27.40;71.10;;;;;;5000754;28;20038;-58
2022/06/19 12:29:50;;;;;;;15.70;5.18;;;27.70;69.20;;;;;;5003215;28;20105;-55
2022/06/19 12:32:27;;;;;;;12.90;4.75;;;27.80;66.70;;;;;;5003761;28;20076;-58
2022/06/19 12:34:58;;;;;;;15.48;5.05;;;27.80;66.70;;;;;;5005278;28;20034;-57
2022/06/19 12:37:27;;;;;;;15.27;5.28;;;27.80;67.70;;;;;;5008460;28;20488;-59
2022/06/19 12:39:54;;;;;;;15.88;5.72;;;27.50;68.00;;;;;;5009016;28;20103;-58
2022/06/19 12:42:46;;;;;;;20.35;5.70;;;27.50;67.60;;;;;;5005916;28;20113;-58
2022/06/19 12:45:45;;;;;;;16.25;6.03;;;27.40;67.60;;;;;;5003207;28;20120;-57
2022/06/19 12:48:39;;;;;;;19.15;6.35;;;27.30;66.40;;;;;;5006111;28;20030;-59
2022/06/19 12:51:08;;;;;;;18.95;5.78;;;26.70;68.10;;;;;;5008862;28;20014;-58
2022/06/19 12:53:58;;;;;;;21.75;5.50;;;26.90;69.90;;;;;;5004056;28;20019;-58
2022/06/19 12:56:41;;;;;;;22.42;6.28;;;27.00;70.10;;;;;;5007779;28;20034;-59
2022/06/19 12:59:28;;;;;;;19.23;5.13;;;27.00;68.60;;;;;;5011235;28;20037;-59
2022/06/19 13:01:56;;;;;;;15.63;5.45;;;26.80;68.40;;;;;;5011808;28;20727;-58
2022/06/19 13:04:58;;;;;;;33.40;7.28;;;26.70;68.90;;;;;;5005658;28;20037;-57
2022/06/19 13:07:50;;;;;;;17.73;5.45;;;26.40;69.80;;;;;;5013967;28;20423;-58
2022/06/19 13:10:35;;;;;;;23.05;5.93;;;26.50;70.20;;;;;;5007604;28;20042;-56